Архангеловка

Карта отелей и гостиниц, располагающихся рядом с аэропортом Архангеловка :

Архангеловка Хабаровский край 48° 41' 46.7412" N, 134° 28' 10.8588" E
Архангеловка Хабаровский край 48° 41' 46.7412" N, 134° 28' 10.8588" E
Код аэродрома ИКАО: 
HH55
Код аэродрома RU: 
ХХ55
Координаты: 
N48.69632° E134.46968°
Превышение над уровнем моря : 
60
Основная полоса: 
09/27
Курс магнитный: 
087,6/267,6
Длина основной ВПП: 
23
Ширина основной ВПП: 
23
Покрытие основной ВПП: 
Твёрдое
Освещение ВПП: 
По запросу
Тип: 
Вертодром
Класс аэродрома: 
Принадлежность: 
ГА
Статус: 
Действующий
Сайт: 
E-mail аэродрома: 
Страна: 
Россия
Регион: 
Хабаровский край
Город: 
Дополнительная информация: 

Найти трансфер

С помощью этой формы Вы можете найти трансфер из аэропорта Архангеловка в город, аэропорт или вокзал:

Карта места

Javascript is required to view this map.

Погода в аэропортах:

Авиационная погода в Йоэнсуу

Регион: 
Погода METAR: 
EFJO 241650Z AUTO 13005KT 1700 BCFG NSC 13/13 Q1008
Время наблюдения: 
2020-09-24T16:50:00Z
Температура C: 
13.0
Точка росы: 
13.0
Направление ветра: 
130
Скорость ветра (узлы): 
5
Метеорологическая видимость: 
1.06
Явления погоды: 
BCFG
Условия полета: 
IFR

Авиационная погода в Куусамо

Регион: 
Погода METAR: 
EFKS 241650Z AUTO VRB02KT 1100 R12/1500N BCFG VV002 09/09 Q1006
Время наблюдения: 
2020-09-24T16:50:00Z
Температура C: 
9.0
Точка росы: 
9.0
Направление ветра: 
0
Скорость ветра (узлы): 
2
Метеорологическая видимость: 
0.68
Явления погоды: 
BCFG
Условия полета: 
LIFR

Авиационная погода в Абакане

Регион: 
Погода METAR: 
UNAA 241700Z 26007MPS 9999 -SHRA SCT041CB 09/06 Q1003 R20/CLRD65 TEMPO 27010G17MPS RMK QFE730
Время наблюдения: 
2020-09-24T17:00:00Z
Температура C: 
9.0
Точка росы: 
6.0
Направление ветра: 
260
Скорость ветра (узлы): 
14
Метеорологическая видимость: 
6.21
Явления погоды: 
-SHRA
Условия полета: 
VFR
Аэропорт подробнее: 

Авиационная погода в Якутске

Регион: 
Погода METAR: 
UEEE 241700Z 06003MPS 0800 R23L/1800N FU VV004 03/M01 Q1027 R23L/09//60 NOSIG RMK QBB120 QFE761
Время наблюдения: 
2020-09-24T17:00:00Z
Температура C: 
3.0
Точка росы: 
-1.0
Направление ветра: 
60
Скорость ветра (узлы): 
6
Метеорологическая видимость: 
0.5
Явления погоды: 
FU
Условия полета: 
LIFR
Аэропорт подробнее: